This demonstration page uses our WeatherBlox Daily Observations layout. Learn more.

Left ArrowRight Arrow

36.17497, -115.13722

Hourly Observations for January 22, 2016

Temp ( °F °C ) Dew Point ( °F °C ) Humidity (%) Winds ( mph kmh ) Pressure ( in mb ) Visibility ( mi km ) Precip ( " mm )
12:53 am 00:53 Clear 43 6.1 27 -2.8 53 53 N 5 7 30.3 1026 10 16.0934 0 0
1:53 am 01:53 Clear 42 5.6 26 -3.3 53 53 NW 6 9 30.3 1026 10 16.0934 0 0
2:53 am 02:53 Clear 39 3.9 27 -2.8 62 62 NNW 3 6 30.3 1026 10 16.0934 0 0
3:53 am 03:53 Clear 38 3.3 25 -3.9 60 60 Calm 30.29 1026 10 16.0934 0 0
4:53 am 04:53 Clear 40 4.4 23 -5 51 51 WSW 5 7 30.29 1026 10 16.0934 0 0
5:53 am 05:53 Clear 42 5.6 22 -5.6 45 45 S 3 6 30.3 1026 10 16.0934 0 0
6:53 am 06:53 Sunny 41 5 22 -5.6 47 47 Calm 30.32 1027 10 16.0934 0 0
7:53 am 07:53 Sunny 41 5 25 -3.9 53 53 Calm 30.32 1027 10 16.0934 0 0
8:53 am 08:53 Sunny 47 8.3 23 -5 39 39 S 7 11 30.32 1027 10 16.0934 0 0
9:53 am 09:53 Sunny 50 10 22 -5.6 33 33 SE 7 11 30.32 1027 10 16.0934 0 0
10:53 am 10:53 Sunny 52 11.1 22 -5.6 31 31 ESE 3 6 30.3 1026 10 16.0934 0 0
11:53 am 11:53 Sunny 55 12.8 21 -6.1 26 26 SE 7 11 30.26 1025 10 16.0934 0 0
12:53 pm 12:53 Sunny 56 13.3 21 -6.1 26 26 SE 7 11 30.22 1023 10 16.0934 0 0
1:53 pm 13:53 Sunny 57 13.9 21 -6.1 25 25 ESE 8 13 30.19 1023 10 16.0934 0 0
2:53 pm 14:53 Sunny 57 13.9 22 -5.6 26 26 ESE 7 11 30.17 1022 10 16.0934 0 0
3:53 pm 15:53 Sunny 57 13.9 21 -6.1 25 25 ESE 6 9 30.17 1022 10 16.0934 0 0
4:53 pm 16:53 Sunny 55 12.8 20 -6.7 25 25 ESE 5 7 30.18 1022 10 16.0934 0 0
5:53 pm 17:53 Clear 51 10.6 20 -6.7 29 29 SSE 5 7 30.19 1022 10 16.0934 0 0
6:53 pm 18:53 Clear 53 11.7 19 -7.2 26 26 S 6 9 30.19 1022 10 16.0934 0 0
7:53 pm 19:53 Clear 48 8.9 22 -5.6 36 36 Calm 30.18 1022 10 16.0934 0 0
8:53 pm 20:53 Clear 47 8.3 24 -4.4 41 41 NNW 3 6 30.17 1022 10 16.0934 0 0
9:53 pm 21:53 Clear 47 8.3 24 -4.4 41 41 Calm 30.16 1021 10 16.0934 0 0
10:53 pm 22:53 Clear 45 7.2 25 -3.9 46 46 Calm 30.15 1021 10 16.0934 0 0
11:53 pm 23:53 Clear 45 7.2 25 -3.9 46 46 NW 3 6 30.13 1020 10 16.0934 0 0

Powered by AerisWeather